Terminal Aerodrome Forecast
Issued by NWS Sioux Falls, SD

Home | Current Version | Previous Version | Text Only | Print | Product List | Glossary Off
Versions: 1 2 3 4 5 6 7 8 9 10 11 12 13 14 15 16 17 18 19 20 21 22 23 24 25 26 27 28 29 30 31 32 33

000
FTUS43 KFSD 071120
TAFSUX
TAF
KSUX 071120Z 0712/0812 36006KT P6SM SKC
      TEMPO 0712/0713 4SM FU BR
     FM071500 03007KT P6SM SKC
     FM072300 08006KT P6SM SKC
     FM080300 11004KT P6SM SCT250=

USA.gov is the U.S. government's official web portal to all federal, state and local government web resources and services.